UKV506 EGKK-EGPH
Flight info
| Callsign | UKV506 |
|---|---|
| Flight time | 1h 6m |
| Altitude | 38000 |
| Route | LAM L10 BPK UN601 RIBEL DCT INPIP |
| Aircraft | A320/M-SDE3FGIKRWXY/S |
Departure
| Time | 2026-05-07 09:03 |
|---|---|
| Airport | London Gatwick Airport (EGKK) |
Arrival
| Time | 2026-05-07 10:10 |
|---|---|
| Airport | Edinburgh Airport (EGPH) |
| Time | Latitude | Longitude | Altitude | Speed | Heading |
|---|---|---|---|---|---|
| 2026-05-07 08:28 | 51.15599 | -0.17565 | 205 ft | 0 kts | 330° |
| 2026-05-07 08:48 | 51.15590 | -0.17557 | 215 ft | 2 kts | 330° |
| 2026-05-07 08:49 | 51.15577 | -0.17544 | 215 ft | 2 kts | 330° |
| 2026-05-07 08:49 | 51.15566 | -0.17534 | 210 ft | 1 kts | 330° |
| 2026-05-07 08:49 | 51.15558 | -0.17527 | 217 ft | 1 kts | 316° |
| 2026-05-07 08:49 | 51.15551 | -0.17516 | 217 ft | 1 kts | 305° |
| 2026-05-07 08:50 | 51.15546 | -0.17504 | 213 ft | 1 kts | 291° |
| 2026-05-07 08:50 | 51.15542 | -0.17489 | 208 ft | 1 kts | 271° |
| 2026-05-07 08:50 | 51.15542 | -0.17480 | 207 ft | 0 kts | 261° |
| 2026-05-07 08:52 | 51.15533 | -0.17555 | 206 ft | 9 kts | 257° |
| 2026-05-07 08:52 | 51.15521 | -0.17642 | 205 ft | 8 kts | 257° |
| 2026-05-07 08:52 | 51.15510 | -0.17722 | 207 ft | 7 kts | 257° |
| 2026-05-07 08:52 | 51.15499 | -0.17796 | 205 ft | 6 kts | 257° |
| 2026-05-07 08:53 | 51.15490 | -0.17862 | 205 ft | 6 kts | 257° |
| 2026-05-07 08:53 | 51.15482 | -0.17921 | 205 ft | 5 kts | 257° |
| 2026-05-07 08:53 | 51.15475 | -0.17973 | 215 ft | 5 kts | 257° |
| 2026-05-07 08:53 | 51.15469 | -0.18013 | 208 ft | 4 kts | 257° |
| 2026-05-07 08:54 | 51.15468 | -0.18024 | 205 ft | 4 kts | 257° |
| 2026-05-07 08:55 | 51.15462 | -0.18063 | 210 ft | 3 kts | 257° |
| 2026-05-07 08:55 | 51.15453 | -0.18132 | 209 ft | 13 kts | 257° |
| 2026-05-07 08:55 | 51.15442 | -0.18210 | 210 ft | 10 kts | 257° |
| 2026-05-07 08:55 | 51.15429 | -0.18262 | 209 ft | 5 kts | 226° |
| 2026-05-07 08:56 | 51.15371 | -0.18272 | 205 ft | 9 kts | 174° |
| 2026-05-07 08:56 | 51.15318 | -0.18256 | 205 ft | 8 kts | 168° |
| 2026-05-07 08:56 | 51.15274 | -0.18240 | 206 ft | 7 kts | 167° |
| 2026-05-07 08:56 | 51.15229 | -0.18225 | 211 ft | 6 kts | 169° |
| 2026-05-07 08:57 | 51.15198 | -0.18246 | 216 ft | 4 kts | 240° |
| 2026-05-07 08:57 | 51.15193 | -0.18288 | 214 ft | 3 kts | 267° |
| 2026-05-07 08:57 | 51.15194 | -0.18308 | 205 ft | 1 kts | 248° |
| 2026-05-07 08:57 | 51.15187 | -0.18302 | 216 ft | 2 kts | 152° |
| 2026-05-07 08:58 | 51.15184 | -0.18269 | 213 ft | 2 kts | 92° |
| 2026-05-07 08:58 | 51.15187 | -0.18251 | 205 ft | 1 kts | 77° |
| 2026-05-07 08:58 | 51.15194 | -0.18208 | 207 ft | 12 kts | 76° |
| 2026-05-07 08:58 | 51.15216 | -0.18064 | 205 ft | 15 kts | 77° |
| 2026-05-07 08:59 | 51.15239 | -0.17906 | 207 ft | 12 kts | 77° |
| 2026-05-07 08:59 | 51.15254 | -0.17801 | 205 ft | 10 kts | 76° |
| 2026-05-07 08:59 | 51.15271 | -0.17689 | 207 ft | 11 kts | 78° |
| 2026-05-07 08:59 | 51.15287 | -0.17561 | 205 ft | 13 kts | 79° |
| 2026-05-07 09:00 | 51.15302 | -0.17432 | 211 ft | 10 kts | 82° |
| 2026-05-07 09:00 | 51.15293 | -0.17371 | 212 ft | 2 kts | 122° |
| 2026-05-07 09:00 | 51.15285 | -0.17359 | 213 ft | 1 kts | 138° |
| 2026-05-07 09:00 | 51.15252 | -0.17320 | 208 ft | 14 kts | 145° |
| 2026-05-07 09:01 | 51.15172 | -0.17230 | 218 ft | 11 kts | 142° |
| 2026-05-07 09:01 | 51.15140 | -0.17179 | 209 ft | 5 kts | 134° |
| 2026-05-07 09:01 | 51.15128 | -0.17161 | 211 ft | 3 kts | 138° |
| 2026-05-07 09:01 | 51.15122 | -0.17154 | 211 ft | 0 kts | 145° |
| 2026-05-07 09:02 | 51.15083 | -0.17123 | 215 ft | 12 kts | 171° |
| 2026-05-07 09:02 | 51.15059 | -0.17213 | 208 ft | 8 kts | 269° |
| 2026-05-07 09:02 | 51.15055 | -0.17295 | 213 ft | 8 kts | 262° |
| 2026-05-07 09:02 | 51.15013 | -0.17580 | 218 ft | 66 kts | 257° |
| 2026-05-07 09:03 | 51.14838 | -0.18786 | 213 ft | 156 kts | 256° |
| 2026-05-07 09:03 | 51.14568 | -0.20735 | 638 ft | 193 kts | 258° |
| 2026-05-07 09:03 | 51.14319 | -0.22887 | 1334 ft | 206 kts | 259° |
| 2026-05-07 09:03 | 51.14058 | -0.25240 | 1937 ft | 224 kts | 258° |
| 2026-05-07 09:04 | 51.13805 | -0.27516 | 2433 ft | 227 kts | 266° |
| 2026-05-07 09:04 | 51.14125 | -0.29902 | 2972 ft | 229 kts | 298° |
| 2026-05-07 09:04 | 51.15232 | -0.31678 | 3513 ft | 230 kts | 332° |
| 2026-05-07 09:04 | 51.16784 | -0.32219 | 4061 ft | 234 kts | 5° |
| 2026-05-07 09:05 | 51.18291 | -0.31321 | 4614 ft | 237 kts | 38° |
| 2026-05-07 09:05 | 51.19292 | -0.29221 | 4956 ft | 241 kts | 72° |
| 2026-05-07 09:05 | 51.19625 | -0.26690 | 5035 ft | 240 kts | 81° |
| 2026-05-07 09:05 | 51.19919 | -0.24050 | 5003 ft | 238 kts | 81° |
| 2026-05-07 09:06 | 51.20217 | -0.21473 | 4850 ft | 243 kts | 80° |
| 2026-05-07 09:06 | 51.20520 | -0.18944 | 4208 ft | 256 kts | 79° |
| 2026-05-07 09:06 | 51.20878 | -0.16131 | 4023 ft | 263 kts | 79° |
| 2026-05-07 09:06 | 51.21252 | -0.13262 | 4002 ft | 264 kts | 79° |
| 2026-05-07 09:07 | 51.21630 | -0.10394 | 4007 ft | 265 kts | 79° |
| 2026-05-07 09:07 | 51.21883 | -0.08496 | 4008 ft | 264 kts | 79° |
| 2026-05-07 09:07 | 51.22236 | -0.05847 | 4454 ft | 274 kts | 79° |
| 2026-05-07 09:07 | 51.22762 | -0.01877 | 4953 ft | 271 kts | 79° |
| 2026-05-07 09:08 | 51.23008 | 0.00004 | 4994 ft | 269 kts | 79° |
| 2026-05-07 09:08 | 51.23366 | 0.02754 | 5010 ft | 269 kts | 79° |
| 2026-05-07 09:08 | 51.23746 | 0.05697 | 5008 ft | 268 kts | 79° |
| 2026-05-07 09:08 | 51.24120 | 0.08608 | 5012 ft | 268 kts | 79° |
| 2026-05-07 09:09 | 51.24524 | 0.11762 | 5008 ft | 268 kts | 79° |
| 2026-05-07 09:09 | 51.24871 | 0.14480 | 5004 ft | 268 kts | 79° |
| 2026-05-07 09:09 | 51.25263 | 0.17538 | 5008 ft | 268 kts | 79° |
| 2026-05-07 09:09 | 51.25611 | 0.20259 | 5015 ft | 267 kts | 80° |
| 2026-05-07 09:10 | 51.25969 | 0.23183 | 5003 ft | 267 kts | 80° |
| 2026-05-07 09:10 | 51.26315 | 0.26123 | 4844 ft | 267 kts | 81° |
| 2026-05-07 09:10 | 51.26654 | 0.29046 | 4838 ft | 267 kts | 81° |
| 2026-05-07 09:10 | 51.26994 | 0.31967 | 4838 ft | 267 kts | 80° |
| 2026-05-07 09:11 | 51.27635 | 0.34706 | 4836 ft | 268 kts | 56° |
| 2026-05-07 09:11 | 51.29011 | 0.36714 | 4835 ft | 270 kts | 27° |
| 2026-05-07 09:11 | 51.30812 | 0.37441 | 4851 ft | 271 kts | 359° |
| 2026-05-07 09:11 | 51.32648 | 0.36764 | 4872 ft | 271 kts | 336° |
| 2026-05-07 09:12 | 51.34380 | 0.35601 | 4882 ft | 272 kts | 336° |
| 2026-05-07 09:12 | 51.36125 | 0.34432 | 4896 ft | 272 kts | 336° |
| 2026-05-07 09:12 | 51.37864 | 0.33267 | 5010 ft | 272 kts | 336° |
| 2026-05-07 09:12 | 51.39615 | 0.32099 | 5011 ft | 272 kts | 336° |
| 2026-05-07 09:13 | 51.41357 | 0.30936 | 5035 ft | 272 kts | 337° |
| 2026-05-07 09:13 | 51.43114 | 0.29759 | 5284 ft | 279 kts | 336° |
| 2026-05-07 09:13 | 51.44917 | 0.28546 | 5879 ft | 280 kts | 336° |
| 2026-05-07 09:13 | 51.46760 | 0.27302 | 6021 ft | 277 kts | 336° |
| 2026-05-07 09:14 | 51.48521 | 0.26111 | 6109 ft | 277 kts | 336° |
| 2026-05-07 09:14 | 51.50320 | 0.24892 | 6112 ft | 277 kts | 336° |
| 2026-05-07 09:14 | 51.52093 | 0.23687 | 6107 ft | 277 kts | 336° |
| 2026-05-07 09:14 | 51.53850 | 0.22494 | 6112 ft | 278 kts | 336° |
| 2026-05-07 09:15 | 51.55631 | 0.21284 | 6107 ft | 278 kts | 336° |
| 2026-05-07 09:15 | 51.57412 | 0.20070 | 6111 ft | 278 kts | 336° |
| 2026-05-07 09:15 | 51.59192 | 0.18853 | 6110 ft | 278 kts | 336° |
| 2026-05-07 09:15 | 51.60967 | 0.17642 | 6100 ft | 278 kts | 336° |
| 2026-05-07 09:16 | 51.62756 | 0.16414 | 6104 ft | 279 kts | 334° |
| 2026-05-07 09:16 | 51.64383 | 0.14760 | 6102 ft | 277 kts | 318° |
| 2026-05-07 09:16 | 51.65682 | 0.12487 | 6114 ft | 276 kts | 303° |
| 2026-05-07 09:16 | 51.66721 | 0.09899 | 6114 ft | 275 kts | 301° |
| 2026-05-07 09:17 | 51.67762 | 0.07303 | 6108 ft | 275 kts | 301° |
| 2026-05-07 09:17 | 51.68804 | 0.04717 | 6096 ft | 276 kts | 301° |
| 2026-05-07 09:17 | 51.69850 | 0.02123 | 6084 ft | 276 kts | 301° |
| 2026-05-07 09:17 | 51.70888 | -0.00461 | 6095 ft | 276 kts | 301° |
| 2026-05-07 09:18 | 51.71918 | -0.03031 | 6094 ft | 276 kts | 301° |
| 2026-05-07 09:18 | 51.72961 | -0.05636 | 6100 ft | 276 kts | 301° |
| 2026-05-07 09:18 | 51.74036 | -0.08236 | 6417 ft | 284 kts | 306° |
| 2026-05-07 09:18 | 51.75364 | -0.10579 | 7503 ft | 283 kts | 316° |
| 2026-05-07 09:19 | 51.76924 | -0.12525 | 8525 ft | 285 kts | 327° |
| 2026-05-07 09:19 | 51.78659 | -0.14183 | 9544 ft | 287 kts | 329° |
| 2026-05-07 09:19 | 51.80394 | -0.15824 | 10437 ft | 293 kts | 329° |
| 2026-05-07 09:19 | 51.82267 | -0.17599 | 10782 ft | 318 kts | 329° |
| 2026-05-07 09:20 | 51.84232 | -0.19469 | 11207 ft | 336 kts | 329° |
| 2026-05-07 09:20 | 51.86256 | -0.21399 | 11941 ft | 342 kts | 329° |
| 2026-05-07 09:20 | 51.88313 | -0.23365 | 12760 ft | 346 kts | 329° |
| 2026-05-07 09:20 | 51.90393 | -0.25355 | 13575 ft | 350 kts | 329° |
| 2026-05-07 09:21 | 51.92460 | -0.27332 | 14308 ft | 354 kts | 329° |
| 2026-05-07 09:21 | 51.94645 | -0.29422 | 15037 ft | 358 kts | 328° |
| 2026-05-07 09:21 | 51.96784 | -0.31473 | 15743 ft | 362 kts | 328° |
| 2026-05-07 09:21 | 51.99124 | -0.33725 | 16489 ft | 366 kts | 328° |
| 2026-05-07 09:22 | 52.00486 | -0.35037 | 16927 ft | 368 kts | 328° |
| 2026-05-07 09:22 | 52.03476 | -0.37917 | 17847 ft | 374 kts | 328° |
| 2026-05-07 09:22 | 52.05741 | -0.40099 | 18514 ft | 378 kts | 328° |
| 2026-05-07 09:22 | 52.08021 | -0.42294 | 19108 ft | 382 kts | 328° |
| 2026-05-07 09:23 | 52.10307 | -0.44503 | 19706 ft | 385 kts | 328° |
| 2026-05-07 09:23 | 52.12624 | -0.46746 | 20297 ft | 389 kts | 328° |
| 2026-05-07 09:23 | 52.14961 | -0.49010 | 20885 ft | 393 kts | 328° |
| 2026-05-07 09:23 | 52.17329 | -0.51302 | 21462 ft | 398 kts | 329° |
| 2026-05-07 09:24 | 52.19718 | -0.53615 | 22033 ft | 402 kts | 329° |
| 2026-05-07 09:24 | 52.22135 | -0.55959 | 22582 ft | 406 kts | 329° |
| 2026-05-07 09:24 | 52.24579 | -0.58335 | 23135 ft | 410 kts | 329° |
| 2026-05-07 09:24 | 52.27035 | -0.60727 | 23668 ft | 414 kts | 329° |
| 2026-05-07 09:25 | 52.29519 | -0.63153 | 24117 ft | 417 kts | 329° |
| 2026-05-07 09:25 | 52.32038 | -0.65619 | 24578 ft | 420 kts | 329° |
| 2026-05-07 09:25 | 52.34493 | -0.68029 | 25010 ft | 422 kts | 329° |
| 2026-05-07 09:25 | 52.37018 | -0.70510 | 25442 ft | 425 kts | 329° |
| 2026-05-07 09:26 | 52.39558 | -0.73004 | 25873 ft | 427 kts | 330° |
| 2026-05-07 09:26 | 52.42118 | -0.75515 | 26298 ft | 429 kts | 330° |
| 2026-05-07 09:26 | 52.44684 | -0.78029 | 26714 ft | 431 kts | 330° |
| 2026-05-07 09:26 | 52.47259 | -0.80559 | 27124 ft | 434 kts | 330° |
| 2026-05-07 09:27 | 52.49856 | -0.83118 | 27526 ft | 436 kts | 330° |
| 2026-05-07 09:27 | 52.52458 | -0.85689 | 27913 ft | 439 kts | 330° |
| 2026-05-07 09:27 | 52.57717 | -0.90902 | 28668 ft | 443 kts | 330° |
| 2026-05-07 09:28 | 52.60322 | -0.93489 | 29023 ft | 446 kts | 330° |
| 2026-05-07 09:28 | 52.62981 | -0.96131 | 29350 ft | 448 kts | 330° |
| 2026-05-07 09:28 | 52.65655 | -0.98787 | 29691 ft | 450 kts | 330° |
| 2026-05-07 09:28 | 52.68332 | -1.01453 | 30010 ft | 452 kts | 330° |
| 2026-05-07 09:29 | 52.71037 | -1.04155 | 30322 ft | 454 kts | 330° |
| 2026-05-07 09:29 | 52.73741 | -1.06863 | 30583 ft | 456 kts | 330° |
| 2026-05-07 09:29 | 52.76455 | -1.09582 | 30831 ft | 457 kts | 330° |
| 2026-05-07 09:29 | 52.79180 | -1.12309 | 31075 ft | 459 kts | 330° |
| 2026-05-07 09:30 | 52.81878 | -1.15011 | 31358 ft | 459 kts | 330° |
| 2026-05-07 09:30 | 52.84605 | -1.17750 | 31678 ft | 458 kts | 330° |
| 2026-05-07 09:30 | 52.87325 | -1.20489 | 32001 ft | 457 kts | 330° |
| 2026-05-07 09:30 | 52.90031 | -1.23220 | 32331 ft | 457 kts | 330° |
| 2026-05-07 09:31 | 52.92749 | -1.25966 | 32658 ft | 456 kts | 330° |
| 2026-05-07 09:31 | 52.95454 | -1.28701 | 32977 ft | 455 kts | 330° |
| 2026-05-07 09:31 | 52.98125 | -1.31403 | 33302 ft | 455 kts | 330° |
| 2026-05-07 09:31 | 53.00812 | -1.34126 | 33626 ft | 454 kts | 330° |
| 2026-05-07 09:32 | 53.03518 | -1.36873 | 33959 ft | 454 kts | 330° |
| 2026-05-07 09:32 | 53.06207 | -1.39604 | 34264 ft | 453 kts | 330° |
| 2026-05-07 09:32 | 53.08896 | -1.42339 | 34546 ft | 453 kts | 330° |
| 2026-05-07 09:32 | 53.11583 | -1.45075 | 34819 ft | 453 kts | 329° |
| 2026-05-07 09:33 | 53.14258 | -1.47801 | 35085 ft | 453 kts | 329° |
| 2026-05-07 09:33 | 53.19631 | -1.53300 | 35586 ft | 453 kts | 329° |
| 2026-05-07 09:33 | 53.22320 | -1.56067 | 35814 ft | 454 kts | 329° |
| 2026-05-07 09:34 | 53.25002 | -1.58835 | 36048 ft | 454 kts | 329° |
| 2026-05-07 09:34 | 53.27685 | -1.61608 | 36276 ft | 454 kts | 328° |
| 2026-05-07 09:34 | 53.30383 | -1.64396 | 36502 ft | 454 kts | 328° |
| 2026-05-07 09:34 | 53.33061 | -1.67156 | 36727 ft | 454 kts | 328° |
| 2026-05-07 09:35 | 53.35724 | -1.69901 | 36952 ft | 454 kts | 328° |
| 2026-05-07 09:35 | 53.38444 | -1.72709 | 37170 ft | 454 kts | 328° |
| 2026-05-07 09:35 | 53.41103 | -1.75462 | 37377 ft | 454 kts | 327° |
| 2026-05-07 09:35 | 53.43785 | -1.78247 | 37586 ft | 454 kts | 327° |
| 2026-05-07 09:36 | 53.46466 | -1.81038 | 37799 ft | 454 kts | 327° |
| 2026-05-07 09:36 | 53.49150 | -1.83839 | 38032 ft | 453 kts | 327° |
| 2026-05-07 09:36 | 53.51814 | -1.86623 | 38094 ft | 452 kts | 327° |
| 2026-05-07 09:37 | 53.56607 | -1.91634 | 38082 ft | 451 kts | 327° |
| 2026-05-07 09:37 | 53.61935 | -1.97211 | 38079 ft | 451 kts | 327° |
| 2026-05-07 09:38 | 53.67220 | -2.02768 | 38075 ft | 451 kts | 327° |
| 2026-05-07 09:38 | 53.72539 | -2.08381 | 38072 ft | 451 kts | 326° |
| 2026-05-07 09:39 | 53.78209 | -2.12922 | 38077 ft | 452 kts | 337° |
| 2026-05-07 09:39 | 53.84053 | -2.16890 | 38078 ft | 453 kts | 336° |
| 2026-05-07 09:40 | 53.89893 | -2.20906 | 38078 ft | 453 kts | 336° |
| 2026-05-07 09:40 | 53.95739 | -2.24869 | 38073 ft | 453 kts | 340° |
| 2026-05-07 09:41 | 54.01701 | -2.28143 | 38069 ft | 453 kts | 341° |
| 2026-05-07 09:41 | 54.07712 | -2.31375 | 38061 ft | 453 kts | 341° |
| 2026-05-07 09:42 | 54.12793 | -2.34110 | 38060 ft | 453 kts | 341° |
| 2026-05-07 09:42 | 54.19070 | -2.37487 | 37879 ft | 455 kts | 341° |
| 2026-05-07 09:42 | 54.22155 | -2.39151 | 37707 ft | 455 kts | 341° |
| 2026-05-07 09:43 | 54.25141 | -2.40764 | 37538 ft | 455 kts | 341° |
| 2026-05-07 09:43 | 54.28191 | -2.42417 | 37366 ft | 455 kts | 341° |
| 2026-05-07 09:43 | 54.31203 | -2.44047 | 37092 ft | 455 kts | 341° |
| 2026-05-07 09:43 | 54.33600 | -2.45348 | 36877 ft | 454 kts | 341° |
| 2026-05-07 09:44 | 54.36492 | -2.46932 | 36615 ft | 454 kts | 341° |
| 2026-05-07 09:44 | 54.39426 | -2.48527 | 36367 ft | 454 kts | 341° |
| 2026-05-07 09:44 | 54.42434 | -2.50162 | 36112 ft | 454 kts | 341° |
| 2026-05-07 09:44 | 54.45413 | -2.51872 | 35841 ft | 453 kts | 335° |
| 2026-05-07 09:45 | 54.48326 | -2.54345 | 35582 ft | 452 kts | 331° |
| 2026-05-07 09:45 | 54.51077 | -2.56774 | 35333 ft | 452 kts | 332° |
| 2026-05-07 09:45 | 54.53863 | -2.59238 | 35079 ft | 452 kts | 331° |
| 2026-05-07 09:45 | 54.56700 | -2.61758 | 34656 ft | 451 kts | 331° |
| 2026-05-07 09:46 | 54.59494 | -2.64253 | 33672 ft | 455 kts | 331° |
| 2026-05-07 09:46 | 54.62321 | -2.66786 | 32581 ft | 458 kts | 331° |
| 2026-05-07 09:46 | 54.65147 | -2.69318 | 31505 ft | 459 kts | 330° |
| 2026-05-07 09:46 | 54.67984 | -2.71861 | 30535 ft | 460 kts | 330° |
| 2026-05-07 09:47 | 54.70793 | -2.74384 | 30081 ft | 448 kts | 330° |
| 2026-05-07 09:47 | 54.73504 | -2.76820 | 29919 ft | 431 kts | 331° |
| 2026-05-07 09:47 | 54.76139 | -2.79187 | 29487 ft | 422 kts | 330° |
| 2026-05-07 09:47 | 54.78727 | -2.81521 | 28917 ft | 417 kts | 330° |
| 2026-05-07 09:48 | 54.81285 | -2.83835 | 28247 ft | 414 kts | 330° |
| 2026-05-07 09:48 | 54.83814 | -2.86125 | 27864 ft | 406 kts | 330° |
| 2026-05-07 09:48 | 54.85713 | -2.87843 | 27480 ft | 402 kts | 330° |
| 2026-05-07 09:48 | 54.88277 | -2.90053 | 26936 ft | 399 kts | 335° |
| 2026-05-07 09:49 | 54.90842 | -2.91904 | 26404 ft | 397 kts | 335° |
| 2026-05-07 09:49 | 54.93375 | -2.93735 | 25881 ft | 394 kts | 335° |
| 2026-05-07 09:49 | 54.95899 | -2.95560 | 25394 ft | 391 kts | 336° |
| 2026-05-07 09:49 | 54.98405 | -2.97353 | 24892 ft | 389 kts | 336° |
| 2026-05-07 09:50 | 55.00906 | -2.99140 | 24405 ft | 386 kts | 336° |
| 2026-05-07 09:50 | 55.03380 | -3.00911 | 23926 ft | 384 kts | 336° |
| 2026-05-07 09:50 | 55.05819 | -3.02655 | 23384 ft | 383 kts | 336° |
| 2026-05-07 09:50 | 55.08270 | -3.04405 | 22905 ft | 379 kts | 336° |
| 2026-05-07 09:51 | 55.10702 | -3.06132 | 22418 ft | 375 kts | 336° |
| 2026-05-07 09:51 | 55.13119 | -3.07840 | 21934 ft | 372 kts | 336° |
| 2026-05-07 09:51 | 55.15510 | -3.09521 | 21458 ft | 369 kts | 336° |
| 2026-05-07 09:51 | 55.17883 | -3.11181 | 20988 ft | 366 kts | 336° |
| 2026-05-07 09:52 | 55.20246 | -3.12824 | 20519 ft | 363 kts | 336° |
| 2026-05-07 09:52 | 55.22581 | -3.14440 | 20063 ft | 361 kts | 336° |
| 2026-05-07 09:52 | 55.24913 | -3.16044 | 19758 ft | 354 kts | 336° |
| 2026-05-07 09:52 | 55.27163 | -3.17582 | 19639 ft | 342 kts | 336° |
| 2026-05-07 09:53 | 55.29361 | -3.19073 | 19409 ft | 335 kts | 336° |
| 2026-05-07 09:53 | 55.31490 | -3.20509 | 19077 ft | 331 kts | 335° |
| 2026-05-07 09:53 | 55.33669 | -3.21971 | 18696 ft | 329 kts | 336° |
| 2026-05-07 09:53 | 55.35771 | -3.23375 | 18336 ft | 327 kts | 336° |
| 2026-05-07 09:54 | 55.37891 | -3.24786 | 17920 ft | 325 kts | 336° |
| 2026-05-07 09:54 | 55.40001 | -3.26187 | 17482 ft | 323 kts | 336° |
| 2026-05-07 09:54 | 55.42161 | -3.27306 | 17087 ft | 325 kts | 343° |
| 2026-05-07 09:54 | 55.44365 | -3.28148 | 16605 ft | 325 kts | 345° |
| 2026-05-07 09:55 | 55.46641 | -3.28998 | 15664 ft | 342 kts | 345° |
| 2026-05-07 09:55 | 55.49015 | -3.29900 | 14698 ft | 357 kts | 345° |
| 2026-05-07 09:55 | 55.51501 | -3.30862 | 13659 ft | 371 kts | 345° |
| 2026-05-07 09:55 | 55.54055 | -3.31870 | 12940 ft | 374 kts | 345° |
| 2026-05-07 09:56 | 55.56495 | -3.32832 | 12792 ft | 351 kts | 345° |
| 2026-05-07 09:56 | 55.58829 | -3.33328 | 12639 ft | 333 kts | 0° |
| 2026-05-07 09:56 | 55.61115 | -3.32958 | 12358 ft | 327 kts | 4° |
| 2026-05-07 09:56 | 55.63360 | -3.32495 | 11979 ft | 324 kts | 5° |
| 2026-05-07 09:57 | 55.65574 | -3.32028 | 11609 ft | 322 kts | 5° |
| 2026-05-07 09:57 | 55.67156 | -3.31690 | 11323 ft | 321 kts | 5° |
| 2026-05-07 09:57 | 55.69575 | -3.31161 | 10920 ft | 319 kts | 7° |
| 2026-05-07 09:57 | 55.71587 | -3.29953 | 10565 ft | 320 kts | 30° |
| 2026-05-07 09:58 | 55.73333 | -3.27463 | 10189 ft | 318 kts | 44° |
| 2026-05-07 09:58 | 55.74915 | -3.24778 | 9981 ft | 309 kts | 45° |
| 2026-05-07 09:58 | 55.76430 | -3.22170 | 9858 ft | 299 kts | 44° |
| 2026-05-07 09:58 | 55.77922 | -3.19593 | 9565 ft | 294 kts | 45° |
| 2026-05-07 09:59 | 55.79374 | -3.17088 | 9371 ft | 286 kts | 44° |
| 2026-05-07 09:59 | 55.80769 | -3.14672 | 9215 ft | 276 kts | 45° |
| 2026-05-07 09:59 | 55.82121 | -3.12328 | 9026 ft | 268 kts | 44° |
| 2026-05-07 09:59 | 55.83453 | -3.10014 | 8719 ft | 266 kts | 45° |
| 2026-05-07 10:00 | 55.84783 | -3.07700 | 8385 ft | 264 kts | 44° |
| 2026-05-07 10:00 | 55.86083 | -3.05421 | 8070 ft | 263 kts | 45° |
| 2026-05-07 10:00 | 55.87378 | -3.03146 | 7748 ft | 261 kts | 44° |
| 2026-05-07 10:00 | 55.88660 | -3.00879 | 7429 ft | 259 kts | 45° |
| 2026-05-07 10:01 | 55.89935 | -2.98611 | 7115 ft | 257 kts | 45° |
| 2026-05-07 10:01 | 55.91194 | -2.96371 | 6778 ft | 255 kts | 45° |
| 2026-05-07 10:01 | 55.92497 | -2.94249 | 6450 ft | 253 kts | 30° |
| 2026-05-07 10:01 | 55.94130 | -2.93294 | 6119 ft | 245 kts | 358° |
| 2026-05-07 10:02 | 55.95738 | -2.93873 | 5763 ft | 239 kts | 334° |
| 2026-05-07 10:02 | 55.97250 | -2.95102 | 5240 ft | 244 kts | 330° |
| 2026-05-07 10:02 | 55.98811 | -2.96490 | 4341 ft | 258 kts | 330° |
| 2026-05-07 10:02 | 56.00448 | -2.97968 | 3442 ft | 265 kts | 330° |
| 2026-05-07 10:03 | 56.02066 | -2.99439 | 3128 ft | 247 kts | 330° |
| 2026-05-07 10:03 | 56.03508 | -3.00745 | 3014 ft | 225 kts | 330° |
| 2026-05-07 10:03 | 56.04857 | -3.01959 | 3001 ft | 207 kts | 329° |
| 2026-05-07 10:03 | 56.06091 | -3.03152 | 2994 ft | 196 kts | 316° |
| 2026-05-07 10:04 | 56.06765 | -3.05095 | 3000 ft | 181 kts | 270° |
| 2026-05-07 10:04 | 56.06634 | -3.07297 | 3001 ft | 179 kts | 260° |
| 2026-05-07 10:04 | 56.06616 | -3.09455 | 3027 ft | 167 kts | 268° |
| 2026-05-07 10:04 | 56.06688 | -3.11451 | 3008 ft | 155 kts | 269° |
| 2026-05-07 10:05 | 56.06772 | -3.13406 | 3000 ft | 157 kts | 270° |
| 2026-05-07 10:05 | 56.06852 | -3.15361 | 2996 ft | 158 kts | 269° |
| 2026-05-07 10:05 | 56.06780 | -3.17244 | 2999 ft | 151 kts | 242° |
| 2026-05-07 10:05 | 56.06015 | -3.18407 | 3006 ft | 150 kts | 200° |
| 2026-05-07 10:06 | 56.05042 | -3.19144 | 2819 ft | 154 kts | 210° |
| 2026-05-07 10:06 | 56.04111 | -3.20068 | 2570 ft | 151 kts | 209° |
| 2026-05-07 10:06 | 56.03201 | -3.20970 | 2369 ft | 148 kts | 209° |
| 2026-05-07 10:06 | 56.02300 | -3.21862 | 2176 ft | 149 kts | 208° |
| 2026-05-07 10:07 | 56.01392 | -3.22760 | 1991 ft | 150 kts | 208° |
| 2026-05-07 10:07 | 56.00490 | -3.23652 | 1813 ft | 150 kts | 207° |
| 2026-05-07 10:07 | 55.99639 | -3.24743 | 1612 ft | 150 kts | 221° |
| 2026-05-07 10:07 | 55.98937 | -3.26130 | 1439 ft | 152 kts | 229° |
| 2026-05-07 10:08 | 55.98311 | -3.27673 | 1236 ft | 152 kts | 232° |
| 2026-05-07 10:08 | 55.97737 | -3.29243 | 1029 ft | 152 kts | 235° |
| 2026-05-07 10:08 | 55.97261 | -3.30601 | 844 ft | 151 kts | 237° |
| 2026-05-07 10:08 | 55.96731 | -3.32124 | 638 ft | 151 kts | 238° |
| 2026-05-07 10:09 | 55.96189 | -3.33724 | 426 ft | 151 kts | 237° |
| 2026-05-07 10:09 | 55.95643 | -3.35340 | 222 ft | 151 kts | 237° |
| 2026-05-07 10:09 | 55.95111 | -3.36899 | 115 ft | 135 kts | 238° |
| 2026-05-07 10:09 | 55.94748 | -3.37991 | 118 ft | 60 kts | 239° |
| 2026-05-07 10:10 | 55.94553 | -3.38555 | 117 ft | 46 kts | 239° |
| 2026-05-07 10:10 | 55.94490 | -3.38734 | 117 ft | 13 kts | 241° |
| 2026-05-07 10:10 | 55.94414 | -3.38904 | 121 ft | 15 kts | 199° |
| 2026-05-07 10:10 | 55.94313 | -3.38896 | 122 ft | 15 kts | 154° |
| 2026-05-07 10:11 | 55.94294 | -3.38764 | 119 ft | 1 kts | 47° |
| 2026-05-07 10:11 | 55.94296 | -3.38757 | 119 ft | 0 kts | 56° |
| 2026-05-07 10:11 | 55.94297 | -3.38752 | 120 ft | 1 kts | 58° |
| 2026-05-07 10:11 | 55.94335 | -3.38641 | 120 ft | 16 kts | 59° |
| 2026-05-07 10:12 | 55.94393 | -3.38469 | 116 ft | 17 kts | 58° |
| 2026-05-07 10:12 | 55.94454 | -3.38291 | 114 ft | 16 kts | 59° |
| 2026-05-07 10:12 | 55.94514 | -3.38112 | 113 ft | 17 kts | 59° |
| 2026-05-07 10:12 | 55.94569 | -3.37949 | 113 ft | 15 kts | 58° |
| 2026-05-07 10:13 | 55.94621 | -3.37799 | 115 ft | 13 kts | 59° |
| 2026-05-07 10:13 | 55.94661 | -3.37680 | 116 ft | 12 kts | 58° |
| 2026-05-07 10:13 | 55.94697 | -3.37578 | 113 ft | 14 kts | 57° |
| 2026-05-07 10:13 | 55.94738 | -3.37453 | 114 ft | 11 kts | 61° |
| 2026-05-07 10:14 | 55.94780 | -3.37325 | 111 ft | 13 kts | 58° |
| 2026-05-07 10:14 | 55.94831 | -3.37178 | 109 ft | 14 kts | 59° |
| 2026-05-07 10:14 | 55.94880 | -3.37032 | 109 ft | 14 kts | 59° |
| 2026-05-07 10:14 | 55.94925 | -3.36887 | 109 ft | 12 kts | 72° |
| 2026-05-07 10:15 | 55.94909 | -3.36822 | 109 ft | 6 kts | 136° |
| 2026-05-07 10:15 | 55.94863 | -3.36782 | 109 ft | 8 kts | 174° |
| 2026-05-07 10:15 | 55.94801 | -3.36761 | 108 ft | 7 kts | 127° |
| 2026-05-07 10:15 | 55.94803 | -3.36732 | 108 ft | 2 kts | 91° |
| 2026-05-07 10:16 | 55.94802 | -3.36702 | 107 ft | 3 kts | 92° |
| 2026-05-07 10:16 | 55.94801 | -3.36661 | 107 ft | 3 kts | 91° |
| 2026-05-07 10:16 | 55.94801 | -3.36641 | 107 ft | 0 kts | 89° |